Time;durP1;ratioP1;P1;durP2;ratioP2;P2;SDS_P1;SDS_P2;PMS_P1;PMS_P2;Temp;Humidity;BMP_temperature;BMP_pressure;BME280_temperature;BME280_humidity;BME280_pressure;Samples;Min_cycle;Max_cycle;Signal;HPM_P1;HPM_P2
2022/03/09 00:01:39;;;;;;;13.55;8.40;;;;;;;;;;5010820;28;20026;-74
2022/03/09 00:04:05;;;;;;;15.25;7.97;;;;;;;;;;5011911;28;20022;-74
2022/03/09 00:06:30;;;;;;;14.10;8.40;;;;;;;;;;5012684;28;20049;-75
2022/03/09 00:08:56;;;;;;;17.35;8.38;;;;;;;;;;5012051;28;20479;-74
2022/03/09 00:11:21;;;;;;;18.40;8.25;;;;;;;;;;5012539;28;20119;-75
2022/03/09 00:13:47;;;;;;;15.10;8.25;;;;;;;;;;5011858;28;20048;-74
2022/03/09 00:16:12;;;;;;;16.83;9.40;;;;;;;;;;5012403;28;20034;-75
2022/03/09 00:18:38;;;;;;;17.13;8.93;;;;;;;;;;5011863;28;20033;-75
2022/03/09 00:21:03;;;;;;;16.60;8.50;;;;;;;;;;5012054;28;20022;-74
2022/03/09 00:23:29;;;;;;;15.43;8.52;;;;;;;;;;5011239;28;20344;-74
2022/03/09 00:25:54;;;;;;;16.13;9.43;;;;;;;;;;5012236;28;20030;-75
2022/03/09 00:28:20;;;;;;;18.80;10.60;;;;;;;;;;5012094;28;20067;-74
2022/03/09 00:30:45;;;;;;;17.63;9.02;;;;;;;;;;5011696;28;20018;-74
2022/03/09 00:33:11;;;;;;;18.60;9.63;;;;;;;;;;5011601;28;20065;-74
2022/03/09 00:35:39;;;;;;;18.08;9.18;;;;;;;;;;5010630;28;20026;-74
2022/03/09 00:38:06;;;;;;;18.27;9.63;;;;;;;;;;5011157;28;20029;-74
2022/03/09 00:40:31;;;;;;;20.23;9.93;;;;;;;;;;5011763;28;20038;-74
2022/03/09 00:42:57;;;;;;;20.25;10.30;;;;;;;;;;5011249;28;20024;-74
2022/03/09 00:45:22;;;;;;;18.55;10.15;;;;;;;;;;5011750;28;20034;-74
2022/03/09 00:47:48;;;;;;;22.92;9.65;;;;;;;;;;5011593;28;20067;-74
2022/03/09 00:50:13;;;;;;;13.27;7.70;;;;;;;;;;5011481;28;20037;-74
2022/03/09 00:52:38;;;;;;;12.93;7.72;;;;;;;;;;5011265;28;20133;-74
2022/03/09 00:55:05;;;;;;;11.90;7.20;;;;;;;;;;5011137;28;20068;-74
2022/03/09 00:57:31;;;;;;;11.63;6.95;;;;;;;;;;5011704;28;20030;-74
2022/03/09 00:59:56;;;;;;;14.57;7.25;;;;;;;;;;5011313;28;20094;-74
2022/03/09 01:02:21;;;;;;;17.02;8.02;;;;;;;;;;5011167;28;20543;-74
2022/03/09 01:04:46;;;;;;;13.80;7.00;;;;;;;;;;5010003;28;20049;-74
2022/03/09 01:07:12;;;;;;;12.40;6.93;;;;;;;;;;5011720;28;20033;-74
2022/03/09 01:09:37;;;;;;;11.80;6.72;;;;;;;;;;5011091;28;20026;-74
2022/03/09 01:12:03;;;;;;;10.90;5.97;;;;;;;;;;5011280;28;20091;-74
2022/03/09 01:14:29;;;;;;;11.95;6.50;;;;;;;;;;5009320;28;20403;-74
2022/03/09 01:16:54;;;;;;;11.15;6.82;;;;;;;;;;5011366;28;20022;-74
2022/03/09 01:19:19;;;;;;;13.52;6.72;;;;;;;;;;5010729;28;20500;-74
2022/03/09 01:21:45;;;;;;;17.40;8.98;;;;;;;;;;5011280;28;20025;-74
2022/03/09 01:24:10;;;;;;;18.95;9.77;;;;;;;;;;5012089;28;20026;-74
2022/03/09 01:26:36;;;;;;;21.50;10.40;;;;;;;;;;5012807;28;20033;-74
2022/03/09 01:29:01;;;;;;;20.70;10.27;;;;;;;;;;5012176;28;20021;-74
2022/03/09 01:31:26;;;;;;;16.23;8.63;;;;;;;;;;5011644;28;20029;-74
2022/03/09 01:33:52;;;;;;;14.82;8.57;;;;;;;;;;5010440;28;20164;-74
2022/03/09 01:36:17;;;;;;;13.80;7.80;;;;;;;;;;5011311;28;20088;-74
2022/03/09 01:38:42;;;;;;;17.90;8.18;;;;;;;;;;5010576;28;20496;-75
2022/03/09 01:41:08;;;;;;;13.15;7.88;;;;;;;;;;5010891;28;20500;-74
2022/03/09 01:43:34;;;;;;;11.52;7.00;;;;;;;;;;5012950;28;20033;-74
2022/03/09 01:45:59;;;;;;;12.85;7.07;;;;;;;;;;5013917;28;20156;-74
2022/03/09 01:48:24;;;;;;;13.48;8.05;;;;;;;;;;5012486;28;20117;-74
2022/03/09 01:50:50;;;;;;;14.68;8.43;;;;;;;;;;5010420;28;20033;-75
2022/03/09 01:53:17;;;;;;;16.05;8.95;;;;;;;;;;5001482;28;20431;-75
2022/03/09 01:55:43;;;;;;;15.45;8.63;;;;;;;;;;5002785;28;20435;-75
2022/03/09 01:58:08;;;;;;;14.85;7.50;;;;;;;;;;5010398;28;20039;-75
2022/03/09 02:00:34;;;;;;;13.25;7.00;;;;;;;;;;5009025;28;20052;-75
2022/03/09 02:02:59;;;;;;;10.57;6.50;;;;;;;;;;5010457;28;20132;-74
2022/03/09 02:05:26;;;;;;;13.73;6.47;;;;;;;;;;5010328;28;20183;-75
2022/03/09 02:10:37;;;;;;;14.02;7.68;;;;;;;;;;5002702;28;20036;-75
2022/03/09 02:13:02;;;;;;;10.90;6.03;;;;;;;;;;4996506;28;20510;-75
2022/03/09 02:15:27;;;;;;;9.77;6.65;;;;;;;;;;5010814;28;20030;-75
2022/03/09 02:17:53;;;;;;;13.65;7.35;;;;;;;;;;5010418;28;20041;-75
2022/03/09 02:20:18;;;;;;;9.65;6.15;;;;;;;;;;5010133;28;20044;-75
2022/03/09 02:22:44;;;;;;;14.23;7.43;;;;;;;;;;5009685;28;20021;-75
2022/03/09 02:25:14;;;;;;;13.13;7.53;;;;;;;;;;5009987;28;20112;-75
2022/03/09 02:27:41;;;;;;;18.85;9.23;;;;;;;;;;5010023;28;20037;-75
2022/03/09 02:30:08;;;;;;;13.82;8.18;;;;;;;;;;5009841;28;20738;-75
2022/03/09 02:32:43;;;;;;;14.93;8.27;;;;;;;;;;5009627;28;20080;-75
2022/03/09 02:35:10;;;;;;;15.48;8.55;;;;;;;;;;5009902;28;20030;-75
2022/03/09 02:37:37;;;;;;;12.90;7.78;;;;;;;;;;5009761;28;20026;-75
2022/03/09 02:40:04;;;;;;;14.25;7.95;;;;;;;;;;5009587;28;20046;-75
2022/03/09 02:42:29;;;;;;;10.95;6.35;;;;;;;;;;5008332;28;20058;-75
2022/03/09 02:44:54;;;;;;;12.32;7.25;;;;;;;;;;5009772;28;20172;-75
2022/03/09 02:47:20;;;;;;;19.27;7.95;;;;;;;;;;5013857;28;20034;-75
2022/03/09 02:49:45;;;;;;;15.30;7.32;;;;;;;;;;5013821;28;20037;-75
2022/03/09 02:52:10;;;;;;;16.15;8.18;;;;;;;;;;5013708;28;20490;-75
2022/03/09 02:54:36;;;;;;;16.50;7.60;;;;;;;;;;5012974;28;20059;-75
2022/03/09 02:57:01;;;;;;;14.10;7.38;;;;;;;;;;5012743;28;20391;-75
2022/03/09 02:59:27;;;;;;;14.52;6.72;;;;;;;;;;5013734;28;20033;-75
2022/03/09 03:01:53;;;;;;;13.52;6.93;;;;;;;;;;5013860;28;20029;-75
2022/03/09 03:04:19;;;;;;;13.60;7.75;;;;;;;;;;5013359;28;20104;-75
2022/03/09 03:06:44;;;;;;;14.48;6.93;;;;;;;;;;5013421;28;20029;-75
2022/03/09 03:09:10;;;;;;;11.23;6.88;;;;;;;;;;5012974;28;20026;-75
2022/03/09 03:11:35;;;;;;;12.35;7.50;;;;;;;;;;5012995;28;20034;-75
2022/03/09 03:14:00;;;;;;;15.27;7.95;;;;;;;;;;5013315;28;20507;-75
2022/03/09 03:16:26;;;;;;;11.93;7.18;;;;;;;;;;5013355;28;20026;-75
2022/03/09 03:18:51;;;;;;;14.02;7.72;;;;;;;;;;5013288;28;20029;-75
2022/03/09 03:21:16;;;;;;;18.10;7.75;;;;;;;;;;5012756;28;20045;-75
2022/03/09 03:23:41;;;;;;;13.80;7.45;;;;;;;;;;5012890;28;20038;-75
2022/03/09 03:26:07;;;;;;;12.68;8.20;;;;;;;;;;5013206;28;20062;-75
2022/03/09 03:28:32;;;;;;;13.82;7.90;;;;;;;;;;5013083;28;20040;-75
2022/03/09 03:30:58;;;;;;;31.65;18.38;;;;;;;;;;5012540;28;20029;-75
2022/03/09 03:33:23;;;;;;;17.77;10.32;;;;;;;;;;5012899;28;20104;-75
2022/03/09 03:35:49;;;;;;;15.15;7.75;;;;;;;;;;5013358;28;20026;-74
2022/03/09 03:38:15;;;;;;;14.05;8.00;;;;;;;;;;5012633;28;20029;-75
2022/03/09 03:40:42;;;;;;;10.98;6.38;;;;;;;;;;5012556;28;20099;-75
2022/03/09 03:43:07;;;;;;;12.38;7.00;;;;;;;;;;5012174;28;20080;-75
2022/03/09 03:45:33;;;;;;;12.23;7.55;;;;;;;;;;5011796;28;20426;-75
2022/03/09 03:47:58;;;;;;;13.25;7.38;;;;;;;;;;5012792;28;20284;-75
2022/03/09 03:50:24;;;;;;;13.20;7.25;;;;;;;;;;4996894;28;20029;-75
2022/03/09 03:52:50;;;;;;;16.13;8.25;;;;;;;;;;5012214;28;20062;-75
2022/03/09 03:55:15;;;;;;;12.68;6.47;;;;;;;;;;5012502;28;20029;-75
2022/03/09 03:57:41;;;;;;;14.30;7.13;;;;;;;;;;5011510;28;20388;-75
2022/03/09 04:00:08;;;;;;;23.77;10.73;;;;;;;;;;5012267;28;20487;-75
2022/03/09 04:02:33;;;;;;;16.98;7.90;;;;;;;;;;5012113;28;20304;-75
2022/03/09 04:04:59;;;;;;;14.55;7.70;;;;;;;;;;5012172;28;20030;-75
2022/03/09 04:07:24;;;;;;;13.27;6.75;;;;;;;;;;5012986;28;20247;-75
2022/03/09 04:09:50;;;;;;;14.27;7.30;;;;;;;;;;5011983;28;20426;-75
2022/03/09 04:12:15;;;;;;;10.60;6.38;;;;;;;;;;5012311;28;20064;-75
2022/03/09 04:14:40;;;;;;;11.40;7.10;;;;;;;;;;5012240;28;20041;-74
2022/03/09 04:17:06;;;;;;;12.35;6.20;;;;;;;;;;5012199;28;20026;-74
2022/03/09 04:19:32;;;;;;;13.85;7.22;;;;;;;;;;5012205;28;20030;-74
2022/03/09 04:21:57;;;;;;;11.77;6.32;;;;;;;;;;5010303;28;20022;-74
2022/03/09 04:24:22;;;;;;;12.88;7.07;;;;;;;;;;5012090;28;20034;-74
2022/03/09 04:26:48;;;;;;;12.85;7.13;;;;;;;;;;5012259;28;20088;-74
2022/03/09 04:29:13;;;;;;;13.75;7.40;;;;;;;;;;5012007;28;20034;-74
2022/03/09 04:31:39;;;;;;;15.20;7.82;;;;;;;;;;5011295;28;20022;-74
2022/03/09 04:34:05;;;;;;;14.40;7.47;;;;;;;;;;5011889;28;20037;-74
2022/03/09 04:36:30;;;;;;;13.45;6.95;;;;;;;;;;5012084;28;20044;-74
2022/03/09 04:38:55;;;;;;;13.00;6.55;;;;;;;;;;5011183;28;20064;-74
2022/03/09 04:41:21;;;;;;;13.80;7.13;;;;;;;;;;5012041;28;20018;-74
2022/03/09 04:43:47;;;;;;;17.15;7.20;;;;;;;;;;5011533;28;20028;-74
2022/03/09 04:46:12;;;;;;;12.88;6.90;;;;;;;;;;5011952;28;20038;-74
2022/03/09 04:48:37;;;;;;;13.85;7.03;;;;;;;;;;5011746;28;20261;-74
2022/03/09 04:51:04;;;;;;;15.25;6.85;;;;;;;;;;5011261;28;20028;-74
2022/03/09 04:53:30;;;;;;;15.07;7.10;;;;;;;;;;5007258;28;20067;-74
2022/03/09 04:55:55;;;;;;;18.70;10.15;;;;;;;;;;5011563;28;20030;-74
2022/03/09 04:58:22;;;;;;;16.40;8.63;;;;;;;;;;5011576;28;20038;-74
2022/03/09 05:00:47;;;;;;;12.43;7.50;;;;;;;;;;5011431;28;20025;-74
2022/03/09 05:03:13;;;;;;;14.23;7.75;;;;;;;;;;5009691;28;20091;-74
2022/03/09 05:05:38;;;;;;;15.05;7.97;;;;;;;;;;5011459;28;20634;-74
2022/03/09 05:08:04;;;;;;;17.02;8.75;;;;;;;;;;5008980;28;20029;-74
2022/03/09 05:10:29;;;;;;;17.85;11.02;;;;;;;;;;5002499;28;20038;-74
2022/03/09 05:12:54;;;;;;;19.23;10.25;;;;;;;;;;5011374;28;20032;-74
2022/03/09 05:15:20;;;;;;;14.63;7.97;;;;;;;;;;5010940;28;20033;-74
2022/03/09 05:17:45;;;;;;;13.85;7.60;;;;;;;;;;5011402;28;20029;-74
2022/03/09 05:20:12;;;;;;;15.50;8.73;;;;;;;;;;5010928;28;20056;-74
2022/03/09 05:22:38;;;;;;;13.55;7.63;;;;;;;;;;5011481;28;20097;-74
2022/03/09 05:25:03;;;;;;;18.08;7.93;;;;;;;;;;5009670;28;20112;-74
2022/03/09 05:27:29;;;;;;;16.67;8.07;;;;;;;;;;5010833;28;20048;-74
2022/03/09 05:29:54;;;;;;;15.57;7.80;;;;;;;;;;5011072;28;20032;-74
2022/03/09 05:32:20;;;;;;;13.48;7.63;;;;;;;;;;5010987;28;20088;-74
2022/03/09 05:34:46;;;;;;;14.10;7.80;;;;;;;;;;5010782;28;20116;-74
2022/03/09 05:37:12;;;;;;;17.10;9.45;;;;;;;;;;5010998;28;20439;-74
2022/03/09 05:39:37;;;;;;;16.67;8.63;;;;;;;;;;5010832;28;20435;-74
2022/03/09 05:42:03;;;;;;;15.80;7.20;;;;;;;;;;5011234;28;20056;-74
2022/03/09 05:44:28;;;;;;;12.63;6.93;;;;;;;;;;5010491;28;20388;-74
2022/03/09 05:46:54;;;;;;;14.75;8.20;;;;;;;;;;5010886;28;20111;-74
2022/03/09 05:49:20;;;;;;;12.02;7.25;;;;;;;;;;5010710;28;20028;-74
2022/03/09 05:51:45;;;;;;;13.90;7.45;;;;;;;;;;5010276;28;20452;-74
2022/03/09 05:54:11;;;;;;;11.20;7.47;;;;;;;;;;4998592;28;20453;-74
2022/03/09 05:56:36;;;;;;;10.68;6.50;;;;;;;;;;5010615;28;20532;-74
2022/03/09 05:59:02;;;;;;;14.77;7.05;;;;;;;;;;5010595;28;20488;-74
2022/03/09 06:01:27;;;;;;;15.73;7.35;;;;;;;;;;5010089;28;20057;-73
2022/03/09 06:03:52;;;;;;;15.32;7.28;;;;;;;;;;5009231;28;20034;-74
2022/03/09 06:06:18;;;;;;;14.73;7.38;;;;;;;;;;5009387;28;20471;-74
2022/03/09 06:08:43;;;;;;;13.63;6.68;;;;;;;;;;5009992;28;20037;-74
2022/03/09 06:11:08;;;;;;;13.90;7.95;;;;;;;;;;5000320;28;20033;-74
2022/03/09 06:13:34;;;;;;;14.13;7.55;;;;;;;;;;5008598;28;20025;-74
2022/03/09 06:15:59;;;;;;;13.38;6.93;;;;;;;;;;5010259;28;20034;-73
2022/03/09 06:18:24;;;;;;;14.05;7.75;;;;;;;;;;5010124;28;20037;-73
2022/03/09 06:20:50;;;;;;;15.02;8.55;;;;;;;;;;5008399;28;20026;-73
2022/03/09 06:23:16;;;;;;;13.68;8.13;;;;;;;;;;5010308;28;20033;-73
2022/03/09 06:25:41;;;;;;;14.85;7.85;;;;;;;;;;5010595;28;20034;-73
2022/03/09 06:28:06;;;;;;;16.02;7.97;;;;;;;;;;5001910;28;20060;-73
2022/03/09 06:30:32;;;;;;;14.50;7.13;;;;;;;;;;5009575;28;20510;-73
2022/03/09 06:32:57;;;;;;;14.82;7.15;;;;;;;;;;5009277;28;20050;-74
2022/03/09 06:35:23;;;;;;;10.95;6.50;;;;;;;;;;5009801;28;20315;-73
2022/03/09 06:37:48;;;;;;;13.70;7.40;;;;;;;;;;5007324;28;20053;-73
2022/03/09 06:40:14;;;;;;;11.85;7.30;;;;;;;;;;5010029;28;20045;-73
2022/03/09 06:42:39;;;;;;;12.88;7.82;;;;;;;;;;5009685;28;20498;-73
2022/03/09 06:45:05;;;;;;;15.93;8.57;;;;;;;;;;5009371;28;20030;-73
2022/03/09 06:47:32;;;;;;;15.77;8.02;;;;;;;;;;5007702;28;20033;-73
2022/03/09 06:49:58;;;;;;;16.92;8.80;;;;;;;;;;5009532;28;20038;-73
2022/03/09 06:52:23;;;;;;;14.35;8.13;;;;;;;;;;5009419;28;20033;-73
2022/03/09 06:54:49;;;;;;;15.80;7.93;;;;;;;;;;5009597;28;20169;-73
2022/03/09 06:57:14;;;;;;;17.55;8.40;;;;;;;;;;5008930;28;20030;-73
2022/03/09 06:59:42;;;;;;;15.38;9.32;;;;;;;;;;5008433;28;20069;-73
2022/03/09 07:02:07;;;;;;;20.63;11.02;;;;;;;;;;5009797;28;20057;-73
2022/03/09 07:04:32;;;;;;;21.95;12.50;;;;;;;;;;5009631;28;20504;-73
2022/03/09 07:06:58;;;;;;;20.23;11.68;;;;;;;;;;5008521;28;20034;-74
2022/03/09 07:09:23;;;;;;;17.70;10.77;;;;;;;;;;5006188;28;20034;-74
2022/03/09 07:11:48;;;;;;;17.98;9.98;;;;;;;;;;5006651;28;20205;-74
2022/03/09 07:14:14;;;;;;;16.67;9.13;;;;;;;;;;5008615;28;20041;-73
2022/03/09 07:16:39;;;;;;;16.13;9.45;;;;;;;;;;5009295;28;20034;-73
2022/03/09 07:19:04;;;;;;;32.25;13.70;;;;;;;;;;5008805;28;20029;-73
2022/03/09 07:21:30;;;;;;;29.05;13.30;;;;;;;;;;5009046;28;20523;-73
2022/03/09 07:23:56;;;;;;;24.27;10.13;;;;;;;;;;5008053;28;20030;-72
2022/03/09 07:26:21;;;;;;;15.90;8.15;;;;;;;;;;5008296;28;20034;-72
2022/03/09 07:28:47;;;;;;;17.48;8.15;;;;;;;;;;5008971;28;20427;-73
2022/03/09 07:31:12;;;;;;;16.17;9.00;;;;;;;;;;5005662;28;20164;-72
2022/03/09 07:33:37;;;;;;;15.85;8.95;;;;;;;;;;5006942;28;20053;-72
2022/03/09 07:36:03;;;;;;;15.50;8.05;;;;;;;;;;5011759;28;20442;-75
2022/03/09 07:38:29;;;;;;;15.18;8.38;;;;;;;;;;5011666;28;20037;-73
2022/03/09 07:40:54;;;;;;;16.13;8.75;;;;;;;;;;5011563;28;20159;-73
2022/03/09 07:43:20;;;;;;;16.48;9.20;;;;;;;;;;5011994;28;20466;-73
2022/03/09 07:45:46;;;;;;;14.60;8.75;;;;;;;;;;5012508;28;20276;-73
2022/03/09 07:48:12;;;;;;;13.82;8.48;;;;;;;;;;5011809;28;20088;-73
2022/03/09 07:50:38;;;;;;;11.75;7.18;;;;;;;;;;5012785;28;20025;-74
2022/03/09 07:53:07;;;;;;;15.27;8.75;;;;;;;;;;5011960;28;20033;-74
2022/03/09 07:55:33;;;;;;;10.35;7.10;;;;;;;;;;5011399;28;20022;-74
2022/03/09 07:57:58;;;;;;;10.73;7.22;;;;;;;;;;5011509;28;20248;-74
2022/03/09 08:00:24;;;;;;;14.65;7.78;;;;;;;;;;5011945;28;20029;-74
2022/03/09 08:02:49;;;;;;;12.18;7.72;;;;;;;;;;5011814;28;20499;-74
2022/03/09 08:05:15;;;;;;;10.48;7.00;;;;;;;;;;5012313;28;20472;-74
2022/03/09 08:07:42;;;;;;;11.85;7.53;;;;;;;;;;5010925;28;20476;-74
2022/03/09 08:10:09;;;;;;;12.25;7.78;;;;;;;;;;5011899;28;20056;-74
2022/03/09 08:12:34;;;;;;;10.95;7.22;;;;;;;;;;5011087;28;20407;-74
2022/03/09 08:15:00;;;;;;;11.95;8.50;;;;;;;;;;5047193;23;20041;-73
2022/03/09 08:17:25;;;;;;;10.30;7.20;;;;;;;;;;5032184;28;20118;-74
2022/03/09 08:19:50;;;;;;;12.05;7.93;;;;;;;;;;5030712;28;20079;-74
2022/03/09 08:22:16;;;;;;;8.65;7.00;;;;;;;;;;5031313;28;20310;-74
2022/03/09 08:24:41;;;;;;;11.85;7.60;;;;;;;;;;5032016;28;20036;-74
2022/03/09 08:27:06;;;;;;;10.90;8.18;;;;;;;;;;5031746;28;20367;-74
2022/03/09 08:29:31;;;;;;;12.30;10.70;;;;;;;;;;5029817;28;20120;-74
2022/03/09 08:31:57;;;;;;;10.68;7.10;;;;;;;;;;5031871;28;20048;-74
2022/03/09 08:34:22;;;;;;;12.88;8.27;;;;;;;;;;5031162;28;20189;-74
2022/03/09 08:36:47;;;;;;;13.48;8.10;;;;;;;;;;5030367;28;20041;-74
2022/03/09 08:39:13;;;;;;;9.48;7.43;;;;;;;;;;5031385;28;20043;-74
2022/03/09 08:41:38;;;;;;;10.32;7.40;;;;;;;;;;5031766;28;20087;-74
2022/03/09 08:44:04;;;;;;;13.07;7.60;;;;;;;;;;5030003;28;20025;-74
2022/03/09 08:46:29;;;;;;;11.55;8.30;;;;;;;;;;5030807;28;20528;-74
2022/03/09 08:48:55;;;;;;;11.05;7.60;;;;;;;;;;5030893;28;20079;-74
2022/03/09 08:51:21;;;;;;;18.05;12.30;;;;;;;;;;5030643;28;20023;-74
2022/03/09 08:53:47;;;;;;;11.88;8.10;;;;;;;;;;5036978;28;20090;-74
2022/03/09 08:56:13;;;;;;;10.30;7.28;;;;;;;;;;5037679;28;20128;-74
2022/03/09 08:58:38;;;;;;;11.68;7.90;;;;;;;;;;5029602;28;20672;-74
2022/03/09 09:01:04;;;;;;;11.00;7.47;;;;;;;;;;5029946;28;20040;-74
2022/03/09 09:03:29;;;;;;;9.93;7.53;;;;;;;;;;5030966;28;20029;-74
2022/03/09 09:05:54;;;;;;;19.05;11.65;;;;;;;;;;5031396;28;20029;-74
2022/03/09 09:08:20;;;;;;;19.75;12.70;;;;;;;;;;5031019;28;20021;-74
2022/03/09 09:10:46;;;;;;;10.32;8.00;;;;;;;;;;5030024;28;20029;-74
2022/03/09 09:13:11;;;;;;;21.02;11.60;;;;;;;;;;5031753;28;20030;-74
2022/03/09 09:15:38;;;;;;;9.98;7.07;;;;;;;;;;5030218;28;20053;-74
2022/03/09 09:18:05;;;;;;;14.98;9.02;;;;;;;;;;5018139;28;20034;-74
2022/03/09 09:20:31;;;;;;;9.45;6.97;;;;;;;;;;5026049;28;20029;-75
2022/03/09 09:22:57;;;;;;;10.23;7.38;;;;;;;;;;5024194;28;20033;-75
2022/03/09 09:25:24;;;;;;;10.75;7.53;;;;;;;;;;5024886;28;20060;-74
2022/03/09 09:27:50;;;;;;;11.30;6.80;;;;;;;;;;5029210;28;20032;-74
2022/03/09 09:30:16;;;;;;;10.60;7.28;;;;;;;;;;5024882;28;20572;-75
2022/03/09 09:32:41;;;;;;;11.35;7.20;;;;;;;;;;5026583;28;20053;-75
2022/03/09 09:35:07;;;;;;;9.70;7.18;;;;;;;;;;5025586;28;20120;-75
2022/03/09 09:37:33;;;;;;;8.68;7.10;;;;;;;;;;5025060;28;20486;-75
2022/03/09 09:39:58;;;;;;;10.32;7.13;;;;;;;;;;5028027;28;20037;-76
2022/03/09 09:42:30;;;;;;;10.75;7.88;;;;;;;;;;5029433;28;20022;-76
2022/03/09 09:44:56;;;;;;;10.48;7.43;;;;;;;;;;5023922;28;20022;-75
2022/03/09 09:47:23;;;;;;;9.32;7.30;;;;;;;;;;5025805;28;20103;-73
2022/03/09 09:49:49;;;;;;;8.90;7.25;;;;;;;;;;5025539;28;20033;-75
2022/03/09 09:52:15;;;;;;;10.88;7.70;;;;;;;;;;5026250;28;20037;-74
2022/03/09 09:54:40;;;;;;;13.80;7.95;;;;;;;;;;5024258;28;20131;-74
2022/03/09 09:57:06;;;;;;;10.55;7.15;;;;;;;;;;5026005;28;20036;-74
2022/03/09 09:59:32;;;;;;;11.27;8.23;;;;;;;;;;5025935;28;20536;-73
2022/03/09 10:01:58;;;;;;;9.93;7.15;;;;;;;;;;5025125;28;20027;-74
2022/03/09 10:04:24;;;;;;;11.52;8.07;;;;;;;;;;5026367;28;20045;-73
2022/03/09 10:06:49;;;;;;;12.52;7.82;;;;;;;;;;5025887;28;20063;-73
2022/03/09 10:09:14;;;;;;;10.05;7.10;;;;;;;;;;5025840;28;20025;-72
2022/03/09 10:11:56;;;;;;;15.68;8.15;;;;;;;;;;5026553;28;20064;-72
2022/03/09 10:14:40;;;;;;;12.38;8.05;;;;;;;;;;5020325;28;20040;-72
2022/03/09 10:17:08;;;;;;;11.23;7.80;;;;;;;;;;5026158;28;20021;-73
2022/03/09 10:19:41;;;;;;;10.77;8.00;;;;;;;;;;5024456;28;20030;-71
2022/03/09 10:22:32;;;;;;;11.57;8.10;;;;;;;;;;5026482;28;20029;-71
2022/03/09 10:25:19;;;;;;;10.15;8.07;;;;;;;;;;5026472;28;20029;-72
2022/03/09 10:27:49;;;;;;;14.70;7.78;;;;;;;;;;5025265;28;20029;-71
2022/03/09 10:30:18;;;;;;;12.60;7.80;;;;;;;;;;5024700;28;20087;-71
2022/03/09 10:32:56;;;;;;;13.80;8.07;;;;;;;;;;5025719;28;20527;-71
2022/03/09 10:35:30;;;;;;;12.20;8.02;;;;;;;;;;5025784;28;20052;-71
2022/03/09 10:38:02;;;;;;;11.95;7.95;;;;;;;;;;5030493;28;20045;-72
2022/03/09 10:40:28;;;;;;;10.23;7.45;;;;;;;;;;5028845;28;20478;-72
2022/03/09 10:43:13;;;;;;;9.98;7.07;;;;;;;;;;5025140;28;20025;-73
2022/03/09 10:46:01;;;;;;;9.10;7.80;;;;;;;;;;5019511;28;20063;-72
2022/03/09 10:48:27;;;;;;;10.25;7.55;;;;;;;;;;5026244;28;20406;-72
2022/03/09 10:50:54;;;;;;;10.30;7.93;;;;;;;;;;5025467;28;20564;-72
2022/03/09 10:53:20;;;;;;;12.57;8.80;;;;;;;;;;5019232;28;20022;-73
2022/03/09 10:55:45;;;;;;;11.07;8.27;;;;;;;;;;5030338;28;20115;-72
2022/03/09 10:58:14;;;;;;;12.95;8.75;;;;;;;;;;5025011;28;20057;-72
2022/03/09 11:00:53;;;;;;;11.40;8.90;;;;;;;;;;5026344;28;20048;-72
2022/03/09 11:03:20;;;;;;;10.10;8.73;;;;;;;;;;5027625;28;20036;-72
2022/03/09 11:05:51;;;;;;;12.25;9.07;;;;;;;;;;5028094;28;20041;-73
2022/03/09 11:08:18;;;;;;;11.15;9.13;;;;;;;;;;5030748;28;20037;-72
2022/03/09 11:10:45;;;;;;;13.95;9.27;;;;;;;;;;5027324;28;20028;-72
2022/03/09 11:13:11;;;;;;;13.43;9.98;;;;;;;;;;5032260;28;20368;-72
2022/03/09 11:15:38;;;;;;;12.93;9.73;;;;;;;;;;5029354;28;20124;-73
2022/03/09 11:18:05;;;;;;;14.88;9.95;;;;;;;;;;5033562;28;20025;-72
2022/03/09 11:20:30;;;;;;;11.57;9.20;;;;;;;;;;5033811;28;20033;-73
2022/03/09 11:22:56;;;;;;;12.25;9.82;;;;;;;;;;5036957;28;20025;-72
2022/03/09 11:25:23;;;;;;;11.20;9.88;;;;;;;;;;5030089;28;20033;-73
2022/03/09 11:27:51;;;;;;;14.27;9.82;;;;;;;;;;5032539;28;20056;-72
2022/03/09 11:30:28;;;;;;;14.98;10.35;;;;;;;;;;5030228;28;20048;-73
2022/03/09 11:32:55;;;;;;;12.77;9.23;;;;;;;;;;5024860;28;20064;-72
2022/03/09 11:35:30;;;;;;;14.23;10.38;;;;;;;;;;5032069;28;20021;-72
2022/03/09 11:37:56;;;;;;;15.95;10.25;;;;;;;;;;5031902;28;20040;-73
2022/03/09 11:40:21;;;;;;;14.63;9.27;;;;;;;;;;5032420;28;20029;-72
2022/03/09 11:42:47;;;;;;;17.15;10.05;;;;;;;;;;5032016;28;20025;-73
2022/03/09 11:45:22;;;;;;;15.40;9.95;;;;;;;;;;5031009;28;20025;-72
2022/03/09 11:48:03;;;;;;;14.25;9.85;;;;;;;;;;5031802;28;20021;-72
2022/03/09 11:50:34;;;;;;;17.83;10.68;;;;;;;;;;5032028;28;20056;-73
2022/03/09 11:53:05;;;;;;;15.07;10.50;;;;;;;;;;5031043;28;20095;-72
2022/03/09 11:55:33;;;;;;;16.83;10.27;;;;;;;;;;5032219;28;20083;-73
2022/03/09 11:57:58;;;;;;;14.35;9.65;;;;;;;;;;5030900;28;20476;-73
2022/03/09 12:00:23;;;;;;;16.63;10.48;;;;;;;;;;5032066;28;20029;-72
2022/03/09 12:02:56;;;;;;;18.45;10.60;;;;;;;;;;5032324;28;20029;-72
2022/03/09 12:05:25;;;;;;;15.25;10.20;;;;;;;;;;5032324;28;20063;-72
2022/03/09 12:07:59;;;;;;;14.98;10.23;;;;;;;;;;5032116;28;20104;-73
2022/03/09 12:10:44;;;;;;;15.15;10.52;;;;;;;;;;5031675;28;20121;-72
2022/03/09 12:13:22;;;;;;;15.93;10.98;;;;;;;;;;5026852;28;20104;-72
2022/03/09 12:16:12;;;;;;;17.48;10.68;;;;;;;;;;5031562;28;20512;-72
2022/03/09 12:18:57;;;;;;;18.25;10.65;;;;;;;;;;5036116;28;20102;-73
2022/03/09 12:21:22;;;;;;;20.13;11.50;;;;;;;;;;5037374;28;20180;-73
2022/03/09 12:24:06;;;;;;;19.35;10.90;;;;;;;;;;5032572;28;20410;-72
2022/03/09 12:26:42;;;;;;;13.98;9.32;;;;;;;;;;5030448;28;20113;-72
2022/03/09 12:29:34;;;;;;;17.58;10.40;;;;;;;;;;5030011;28;20109;-72
2022/03/09 12:32:02;;;;;;;16.50;10.68;;;;;;;;;;5029865;28;20322;-72
2022/03/09 12:34:30;;;;;;;18.48;10.52;;;;;;;;;;5031643;28;20027;-73
2022/03/09 12:36:57;;;;;;;22.95;11.18;;;;;;;;;;5031944;28;20056;-72
2022/03/09 12:39:22;;;;;;;15.45;10.57;;;;;;;;;;5031645;28;20025;-72
2022/03/09 12:41:56;;;;;;;17.90;11.10;;;;;;;;;;5031716;28;20590;-72
2022/03/09 12:44:23;;;;;;;18.70;11.07;;;;;;;;;;5031484;28;20025;-72
2022/03/09 12:46:51;;;;;;;17.83;10.27;;;;;;;;;;5030249;28;20711;-73
2022/03/09 12:49:22;;;;;;;18.17;10.85;;;;;;;;;;5031268;28;20087;-72
2022/03/09 12:51:54;;;;;;;20.90;9.82;;;;;;;;;;5031780;28;20025;-73
2022/03/09 12:54:37;;;;;;;19.50;11.00;;;;;;;;;;5031283;28;20029;-72
2022/03/09 12:57:08;;;;;;;19.00;10.23;;;;;;;;;;5031594;28;20525;-73
2022/03/09 12:59:33;;;;;;;16.48;10.30;;;;;;;;;;5031380;28;20025;-72
2022/03/09 13:01:59;;;;;;;19.92;10.93;;;;;;;;;;5031324;28;20096;-73
2022/03/09 13:04:25;;;;;;;16.77;9.98;;;;;;;;;;5031327;28;20053;-73
2022/03/09 13:06:50;;;;;;;17.10;11.00;;;;;;;;;;5031092;28;20071;-72
2022/03/09 13:09:23;;;;;;;18.48;10.77;;;;;;;;;;5030897;28;20040;-72
2022/03/09 13:11:48;;;;;;;17.13;10.10;;;;;;;;;;5031014;28;20036;-73
2022/03/09 13:14:16;;;;;;;17.23;10.95;;;;;;;;;;5030840;28;20033;-73
2022/03/09 13:16:42;;;;;;;16.77;10.73;;;;;;;;;;5031272;28;20132;-73
2022/03/09 13:19:08;;;;;;;18.48;11.25;;;;;;;;;;5030884;28;20112;-72
2022/03/09 13:21:34;;;;;;;20.95;11.20;;;;;;;;;;5031091;28;20032;-72
2022/03/09 13:24:04;;;;;;;19.13;11.38;;;;;;;;;;5030600;28;20029;-72
2022/03/09 13:26:44;;;;;;;22.23;11.43;;;;;;;;;;5031120;28;20025;-72
2022/03/09 13:29:16;;;;;;;18.02;10.60;;;;;;;;;;5030424;28;20033;-72
2022/03/09 13:31:42;;;;;;;22.30;13.68;;;;;;;;;;5032035;28;20383;-72
2022/03/09 13:34:13;;;;;;;24.00;15.40;;;;;;;;;;5041677;28;20172;-72
2022/03/09 13:36:39;;;;;;;17.40;10.32;;;;;;;;;;5030654;28;20556;-73
2022/03/09 13:39:05;;;;;;;18.80;12.00;;;;;;;;;;5030367;28;20104;-72
2022/03/09 13:41:40;;;;;;;20.45;10.98;;;;;;;;;;5030283;28;20494;-73
2022/03/09 13:44:26;;;;;;;20.48;11.10;;;;;;;;;;5030339;28;20021;-72
2022/03/09 13:47:07;;;;;;;18.88;11.48;;;;;;;;;;5030535;28;20467;-72
2022/03/09 13:49:46;;;;;;;17.42;10.35;;;;;;;;;;5030390;28;20478;-73
2022/03/09 13:52:31;;;;;;;18.42;11.35;;;;;;;;;;5030808;28;20390;-73
2022/03/09 13:54:59;;;;;;;18.58;12.27;;;;;;;;;;5029879;28;20017;-73
2022/03/09 13:57:32;;;;;;;16.63;10.73;;;;;;;;;;5026785;28;20029;-72
2022/03/09 13:59:59;;;;;;;19.42;10.82;;;;;;;;;;5028276;28;20068;-72
2022/03/09 14:02:25;;;;;;;20.05;12.57;;;;;;;;;;5030134;28;20056;-73
2022/03/09 14:04:51;;;;;;;19.48;12.77;;;;;;;;;;5030093;28;20021;-73
2022/03/09 14:07:17;;;;;;;18.63;12.35;;;;;;;;;;5030452;28;20068;-73
2022/03/09 14:10:13;;;;;;;18.65;10.88;;;;;;;;;;5029870;28;20568;-73
2022/03/09 14:12:41;;;;;;;19.42;11.95;;;;;;;;;;5030135;28;20044;-73
2022/03/09 14:15:07;;;;;;;16.73;10.60;;;;;;;;;;5051158;23;20398;-74
2022/03/09 14:17:32;;;;;;;18.63;10.27;;;;;;;;;;5030058;28;20024;-74
2022/03/09 14:19:58;;;;;;;17.55;10.35;;;;;;;;;;5029780;28;20055;-74
2022/03/09 14:22:23;;;;;;;12.73;9.00;;;;;;;;;;5029962;28;20028;-75
2022/03/09 14:24:48;;;;;;;15.00;9.55;;;;;;;;;;5029677;28;20033;-75
2022/03/09 14:27:14;;;;;;;22.08;10.95;;;;;;;;;;5030081;28;20065;-74
2022/03/09 14:29:39;;;;;;;18.15;11.00;;;;;;;;;;5029564;28;20037;-75
2022/03/09 14:32:06;;;;;;;16.92;10.60;;;;;;;;;;5029775;28;20518;-75